createdAt,value
2023-05-10T00:03:51.310Z,12.14
2023-05-10T00:07:54.250Z,12.52
2023-05-10T00:11:55.776Z,12.79
2023-05-10T00:15:57.348Z,12.69
2023-05-10T00:19:58.921Z,12.55
2023-05-10T00:24:01.834Z,12.57
2023-05-10T00:28:03.553Z,12.59
2023-05-10T00:32:05.579Z,12.48
2023-05-10T00:36:08.014Z,12.46
2023-05-10T00:40:12.081Z,12.32
2023-05-10T00:44:13.632Z,12.31
2023-05-10T00:48:15.304Z,12.12
2023-05-10T00:52:16.947Z,12.01
2023-05-10T00:56:20.056Z,11.90
2023-05-10T01:00:21.474Z,11.85
2023-05-10T01:04:23.031Z,11.78
2023-05-10T01:08:24.977Z,11.73
2023-05-10T01:12:27.991Z,11.69
2023-05-10T01:16:33.291Z,11.75
2023-05-10T01:20:41.488Z,11.79
2023-05-10T01:25:23.595Z,12.04
2023-05-10T01:29:48.976Z,12.08
2023-05-10T01:33:58.639Z,12.25
2023-05-10T01:38:08.814Z,12.34
2023-05-10T01:42:13.817Z,12.38
2023-05-10T01:46:18.655Z,12.51
2023-05-10T01:50:28.133Z,12.52
2023-05-10T01:54:30.566Z,12.76
2023-05-10T01:58:34.614Z,12.74
2023-05-10T02:02:38.626Z,12.84
2023-05-10T02:06:43.432Z,12.86
2023-05-10T02:10:46.826Z,12.89
2023-05-10T02:14:48.662Z,12.95
2023-05-10T02:18:52.572Z,13.00
2023-05-10T02:22:56.940Z,13.00
2023-05-10T02:26:59.513Z,12.96
2023-05-10T02:31:01.871Z,12.87
2023-05-10T02:35:04.680Z,12.68
2023-05-10T02:39:08.719Z,12.45
2023-05-10T02:43:13.816Z,12.40
2023-05-10T02:47:15.513Z,12.33
2023-05-10T02:51:19.138Z,12.24
2023-05-10T02:55:26.559Z,12.17
2023-05-10T02:59:28.536Z,12.05
2023-05-10T03:03:30.107Z,11.97
2023-05-10T03:07:31.871Z,11.77
2023-05-10T03:11:44.093Z,11.75
2023-05-10T03:15:55.551Z,11.82
2023-05-10T03:19:58.714Z,11.87
2023-05-10T03:24:06.305Z,11.99
2023-05-10T03:28:09.938Z,11.79
2023-05-10T03:32:11.508Z,11.65
2023-05-10T03:36:13.014Z,11.37
2023-05-10T03:40:14.833Z,11.32
2023-05-10T03:44:17.811Z,11.07
2023-05-10T03:48:19.323Z,10.91
2023-05-10T03:52:20.822Z,11.03
2023-05-10T03:56:22.348Z,10.82
2023-05-10T04:00:25.679Z,10.87
2023-05-10T04:04:27.297Z,10.91
2023-05-10T04:08:29.036Z,10.73
2023-05-10T04:12:30.541Z,10.68
2023-05-10T04:16:33.411Z,10.67
2023-05-10T04:20:34.983Z,10.66
2023-05-10T04:24:36.479Z,10.64
2023-05-10T04:28:37.965Z,10.79
2023-05-10T04:32:40.909Z,11.03
2023-05-10T04:36:42.439Z,11.15
2023-05-10T04:40:43.990Z,11.29
2023-05-10T04:44:45.494Z,11.30
2023-05-10T04:48:48.575Z,11.36
2023-05-10T04:52:49.906Z,11.40
2023-05-10T04:56:51.422Z,10.96
2023-05-10T05:00:52.962Z,11.10
2023-05-10T05:04:56.701Z,11.08
2023-05-10T05:08:58.208Z,10.72
2023-05-10T05:12:59.754Z,10.83
2023-05-10T05:17:01.492Z,11.02
2023-05-10T05:21:04.360Z,11.11
2023-05-10T05:25:06.953Z,11.20
2023-05-10T05:29:08.454Z,11.25
2023-05-10T05:33:10.390Z,11.17
2023-05-10T05:37:15.041Z,11.51
2023-05-10T05:41:16.625Z,11.44
2023-05-10T05:45:18.554Z,11.36
2023-05-10T05:49:20.281Z,11.64
2023-05-10T05:53:23.287Z,11.23
2023-05-10T05:57:24.801Z,11.39
2023-05-10T06:01:26.358Z,11.29
2023-05-10T06:05:27.886Z,11.16
2023-05-10T06:09:30.734Z,11.22
2023-05-10T06:13:32.335Z,11.51
2023-05-10T06:17:33.992Z,11.80
2023-05-10T06:21:35.527Z,11.40
2023-05-10T06:25:38.396Z,11.71
2023-05-10T06:29:39.922Z,12.02
2023-05-10T06:33:41.446Z,11.82
2023-05-10T06:37:42.966Z,12.09
2023-05-10T06:41:45.818Z,12.04
2023-05-10T06:45:48.494Z,11.97
2023-05-10T06:49:50.030Z,11.99
2023-05-10T06:53:51.562Z,12.48
2023-05-10T06:57:54.531Z,12.66
2023-05-10T07:01:56.027Z,12.93
2023-05-10T07:06:01.611Z,13.15
2023-05-10T07:10:03.365Z,12.85
2023-05-10T07:14:06.233Z,12.77
2023-05-10T07:18:07.879Z,13.13
2023-05-10T07:22:09.488Z,12.96
2023-05-10T07:26:10.988Z,13.44
2023-05-10T07:30:14.586Z,12.92
2023-05-10T07:34:16.137Z,12.91
2023-05-10T07:38:17.621Z,13.10
2023-05-10T07:42:19.536Z,13.21
2023-05-10T07:46:22.439Z,13.07
2023-05-10T07:50:24.035Z,13.04
2023-05-10T07:54:25.616Z,13.00
2023-05-10T07:58:27.699Z,13.60
2023-05-10T08:02:30.717Z,14.10
2023-05-10T08:06:32.139Z,14.07
2023-05-10T08:10:33.716Z,14.75
2023-05-10T08:14:35.278Z,15.14
2023-05-10T08:18:38.326Z,14.96
2023-05-10T08:22:39.672Z,15.87
2023-05-10T08:26:41.363Z,16.14
2023-05-10T08:30:42.866Z,16.18
2023-05-10T08:34:45.726Z,15.96
2023-05-10T08:38:47.229Z,15.52
2023-05-10T08:42:55.184Z,14.92
2023-05-10T08:46:58.332Z,14.16
2023-05-10T08:51:01.323Z,14.96
2023-05-10T08:55:02.955Z,15.09
2023-05-10T08:59:04.518Z,15.35
2023-05-10T09:03:06.732Z,15.75
2023-05-10T09:07:09.593Z,15.19
2023-05-10T09:11:12.700Z,15.91
2023-05-10T09:15:16.490Z,15.72
2023-05-10T09:19:18.548Z,15.69
2023-05-10T09:23:21.423Z,15.52
2023-05-10T09:27:27.857Z,15.85
2023-05-10T09:31:46.436Z,15.58
2023-05-10T09:35:48.161Z,16.05
2023-05-10T09:39:55.415Z,15.64
2023-05-10T09:43:57.196Z,16.45
2023-05-10T09:47:59.860Z,16.11
2023-05-10T09:52:02.806Z,15.79
2023-05-10T09:56:05.928Z,15.78
2023-05-10T10:00:07.903Z,15.45
2023-05-10T10:04:10.587Z,15.93
2023-05-10T10:08:13.396Z,15.60
2023-05-10T10:12:16.278Z,16.70
2023-05-10T10:16:17.777Z,17.34
2023-05-10T10:20:20.871Z,16.74
2023-05-10T10:24:22.388Z,16.77
2023-05-10T10:28:36.952Z,17.62
2023-05-10T10:32:55.411Z,17.15
2023-05-10T10:36:58.041Z,17.42
2023-05-10T10:41:04.044Z,17.33
2023-05-10T10:45:16.400Z,16.81
2023-05-10T10:49:18.114Z,17.29
2023-05-10T10:53:19.680Z,17.73
2023-05-10T10:57:21.274Z,17.77
2023-05-10T11:01:24.151Z,17.84
2023-05-10T11:05:34.951Z,19.59
2023-05-10T11:09:40.727Z,19.44
2023-05-10T11:13:43.950Z,19.03
2023-05-10T11:17:48.676Z,18.80
2023-05-10T11:21:52.092Z,18.68
2023-05-10T11:25:53.676Z,18.55
2023-05-10T11:29:55.190Z,18.27
2023-05-10T11:33:59.827Z,17.92
2023-05-10T11:38:01.326Z,17.94
2023-05-10T11:42:03.022Z,17.39
2023-05-10T11:46:05.278Z,17.39
2023-05-10T11:50:09.345Z,17.43
2023-05-10T11:54:12.343Z,17.13
2023-05-10T11:58:13.711Z,16.14
2023-05-10T12:02:15.375Z,16.46
2023-05-10T12:06:19.005Z,16.51
2023-05-10T12:10:27.225Z,16.15
2023-05-10T12:14:28.719Z,15.99
2023-05-10T12:18:30.230Z,15.58
2023-05-10T12:22:34.601Z,15.46
2023-05-10T12:26:36.212Z,15.01
2023-05-10T12:30:38.315Z,14.47
2023-05-10T12:34:39.883Z,13.88
2023-05-10T12:38:44.460Z,13.39
2023-05-10T12:42:46.053Z,13.48
2023-05-10T12:46:47.560Z,13.40
2023-05-10T12:50:49.109Z,13.90
2023-05-10T12:54:51.976Z,14.04
2023-05-10T12:58:53.454Z,13.98
2023-05-10T13:02:55.040Z,14.62
2023-05-10T13:06:56.609Z,14.40
2023-05-10T13:10:59.678Z,13.78
2023-05-10T13:15:01.002Z,13.93
2023-05-10T13:19:02.608Z,14.29
2023-05-10T13:23:04.233Z,14.45
2023-05-10T13:27:07.526Z,14.17
2023-05-10T13:31:09.079Z,14.80
2023-05-10T13:35:10.646Z,14.73
2023-05-10T13:39:12.164Z,14.80
2023-05-10T13:43:15.026Z,15.08
2023-05-10T13:47:16.644Z,15.25
2023-05-10T13:51:18.137Z,15.90
2023-05-10T13:55:19.933Z,15.53
2023-05-10T13:59:23.007Z,16.38
2023-05-10T14:03:24.537Z,15.47
2023-05-10T14:07:26.044Z,15.87
2023-05-10T14:11:27.524Z,15.56
2023-05-10T14:15:30.347Z,15.82
2023-05-10T14:19:31.858Z,14.84
2023-05-10T14:23:33.369Z,15.75
2023-05-10T14:27:34.846Z,15.29
2023-05-10T14:31:37.685Z,16.32
2023-05-10T14:35:39.179Z,16.70
2023-05-10T14:39:40.668Z,16.29
2023-05-10T14:43:42.246Z,16.12
2023-05-10T14:47:45.075Z,15.23
2023-05-10T14:51:46.585Z,15.66
2023-05-10T14:55:48.092Z,15.81
2023-05-10T14:59:49.576Z,15.67
2023-05-10T15:03:52.957Z,15.61
2023-05-10T15:07:55.003Z,15.58
2023-05-10T15:11:56.631Z,15.78
2023-05-10T15:15:59.292Z,14.99
2023-05-10T15:20:02.374Z,15.79
2023-05-10T15:24:03.907Z,15.45
2023-05-10T15:28:05.909Z,15.69
2023-05-10T15:32:07.415Z,15.65
2023-05-10T15:36:10.631Z,15.36
2023-05-10T15:40:12.638Z,14.74
2023-05-10T15:44:14.204Z,15.35
2023-05-10T15:48:15.701Z,15.08
2023-05-10T15:52:18.537Z,14.80
2023-05-10T15:56:20.058Z,15.30
2023-05-10T16:00:21.585Z,15.29
2023-05-10T16:04:23.368Z,15.47
2023-05-10T16:08:26.217Z,14.90
2023-05-10T16:12:28.241Z,14.71
2023-05-10T16:16:29.795Z,14.71
2023-05-10T16:20:32.602Z,14.26
2023-05-10T16:24:35.436Z,14.08
2023-05-10T16:28:36.928Z,14.36
2023-05-10T16:32:38.457Z,14.36
2023-05-10T16:36:39.998Z,14.19
2023-05-10T16:40:42.836Z,14.16
2023-05-10T16:44:44.341Z,13.87
2023-05-10T16:48:46.025Z,13.72
2023-05-10T16:52:47.646Z,14.03
2023-05-10T16:56:50.511Z,13.63
2023-05-10T17:00:52.046Z,13.89
2023-05-10T17:04:53.958Z,13.90
2023-05-10T17:08:55.438Z,13.89
2023-05-10T17:12:58.259Z,13.95
2023-05-10T17:16:59.869Z,13.89
2023-05-10T17:21:01.442Z,13.89
2023-05-10T17:25:03.132Z,14.00
2023-05-10T17:29:05.977Z,14.00
2023-05-10T17:33:07.503Z,13.90
2023-05-10T17:37:10.172Z,13.90
2023-05-10T17:41:11.681Z,13.90
2023-05-10T17:45:15.021Z,13.83
2023-05-10T17:49:16.627Z,13.79
2023-05-10T17:53:18.230Z,13.81
2023-05-10T17:57:19.721Z,13.75
2023-05-10T18:01:22.622Z,13.44
2023-05-10T18:05:24.500Z,13.17
2023-05-10T18:09:26.438Z,12.80
2023-05-10T18:13:28.012Z,12.67
2023-05-10T18:17:30.873Z,12.63
2023-05-10T18:21:32.476Z,12.73
2023-05-10T18:25:34.015Z,12.34
2023-05-10T18:29:35.587Z,12.48
2023-05-10T18:33:38.445Z,12.51
2023-05-10T18:37:40.249Z,12.33
2023-05-10T18:41:41.783Z,12.62
2023-05-10T18:45:43.286Z,12.46
2023-05-10T18:49:46.176Z,12.20
2023-05-10T18:53:47.758Z,12.33
2023-05-10T18:57:49.230Z,12.52
2023-05-10T19:01:51.419Z,12.31
2023-05-10T19:05:54.559Z,12.45
2023-05-10T19:09:56.048Z,12.52
2023-05-10T19:13:57.702Z,12.15
2023-05-10T19:17:59.278Z,12.25
2023-05-10T19:22:02.460Z,12.15
2023-05-10T19:26:03.972Z,12.40
2023-05-10T19:30:07.028Z,12.41
2023-05-10T19:34:08.527Z,12.67
2023-05-10T19:38:11.468Z,12.20
2023-05-10T19:42:12.976Z,12.49
2023-05-10T19:46:17.143Z,12.24
2023-05-10T19:50:19.420Z,12.27
2023-05-10T19:54:22.287Z,12.35
2023-05-10T19:58:23.950Z,12.15
2023-05-10T20:02:25.462Z,11.79
2023-05-10T20:06:26.989Z,11.87
2023-05-10T20:10:30.060Z,11.83
2023-05-10T20:14:31.534Z,11.81
2023-05-10T20:18:33.040Z,11.78
2023-05-10T20:22:34.511Z,11.77
2023-05-10T20:26:37.351Z,12.25
2023-05-10T20:30:39.148Z,12.29
2023-05-10T20:34:40.650Z,12.30
2023-05-10T20:38:42.232Z,12.46
2023-05-10T20:42:45.042Z,12.28
2023-05-10T20:46:46.599Z,12.33
2023-05-10T20:50:48.096Z,12.41
2023-05-10T20:54:49.570Z,12.26
2023-05-10T20:58:52.405Z,12.28
2023-05-10T21:02:53.923Z,12.40
2023-05-10T21:06:55.441Z,12.19
2023-05-10T21:10:56.942Z,12.33
2023-05-10T21:14:59.782Z,12.32
2023-05-10T21:19:01.293Z,11.89
2023-05-10T21:23:02.799Z,11.99
2023-05-10T21:27:04.317Z,12.18
2023-05-10T21:31:07.163Z,12.37
2023-05-10T21:35:09.073Z,12.38
2023-05-10T21:39:10.961Z,12.20
2023-05-10T21:43:12.498Z,11.96
2023-05-10T21:47:15.343Z,11.92
2023-05-10T21:51:16.868Z,11.84
2023-05-10T21:55:18.481Z,11.97
2023-05-10T21:59:20.024Z,12.10
2023-05-10T22:03:23.002Z,12.17
2023-05-10T22:07:24.532Z,12.33
2023-05-10T22:11:26.064Z,12.28
2023-05-10T22:15:27.574Z,12.05
2023-05-10T22:19:30.405Z,11.82
2023-05-10T22:23:31.877Z,12.21
2023-05-10T22:27:33.407Z,11.75
2023-05-10T22:31:34.955Z,12.09
2023-05-10T22:35:37.857Z,11.81
2023-05-10T22:39:39.328Z,11.67
2023-05-10T22:43:40.810Z,12.00
2023-05-10T22:47:42.297Z,11.92
2023-05-10T22:51:45.157Z,11.99
2023-05-10T22:55:46.715Z,11.95
2023-05-10T22:59:48.378Z,11.99
2023-05-10T23:03:50.239Z,11.87
2023-05-10T23:07:53.121Z,12.18
2023-05-10T23:11:54.652Z,12.10
2023-05-10T23:15:56.340Z,12.00
2023-05-10T23:19:58.073Z,11.84
2023-05-10T23:24:00.951Z,12.16
2023-05-10T23:28:02.543Z,11.96
2023-05-10T23:32:04.352Z,11.89
2023-05-10T23:36:06.215Z,12.17
2023-05-10T23:40:10.449Z,11.86
2023-05-10T23:44:11.942Z,11.89
2023-05-10T23:48:13.429Z,12.17
2023-05-10T23:52:14.911Z,11.80
2023-05-10T23:56:17.741Z,11.77
